createdAt,value
2019-05-28T00:00:28.899Z,71.07
2019-05-28T00:02:57.515Z,70.63
2019-05-28T00:05:25.827Z,70.53
2019-05-28T00:07:54.189Z,92.03
2019-05-28T00:10:22.811Z,99.00
2019-05-28T00:12:51.326Z,102.83
2019-05-28T00:15:19.808Z,101.33
2019-05-28T00:17:48.116Z,94.03
2019-05-28T00:20:16.406Z,88.43
2019-05-28T00:22:44.704Z,92.83
2019-05-28T00:25:13.015Z,137.67
2019-05-28T00:27:41.569Z,137.13
2019-05-28T00:30:19.633Z,114.97
2019-05-28T00:32:40.163Z,109.23
2019-05-28T00:35:08.478Z,104.43
2019-05-28T00:37:36.772Z,101.57
2019-05-28T00:40:05.924Z,117.87
2019-05-28T00:42:34.459Z,106.57
2019-05-28T00:45:02.847Z,117.10
2019-05-28T00:47:31.459Z,116.93
2019-05-28T00:49:59.772Z,104.23
2019-05-28T00:52:28.327Z,102.53
2019-05-28T00:54:56.748Z,100.73
2019-05-28T00:57:25.410Z,115.07
2019-05-28T00:59:53.719Z,104.77
2019-05-28T01:02:22.304Z,115.07
2019-05-28T01:04:50.968Z,110.53
2019-05-28T01:07:19.301Z,107.43
2019-05-28T01:09:47.843Z,103.07
2019-05-28T01:12:16.486Z,104.20
2019-05-28T01:14:44.780Z,99.97
2019-05-28T01:17:13.444Z,98.90
2019-05-28T01:19:44.194Z,97.77
2019-05-28T01:22:12.874Z,106.97
2019-05-28T01:24:41.679Z,198.60
2019-05-28T01:27:09.994Z,225.73
2019-05-28T01:29:38.285Z,178.83
2019-05-28T01:32:06.639Z,138.43
2019-05-28T01:34:35.275Z,129.27
2019-05-28T01:37:03.867Z,133.63
2019-05-28T01:39:32.443Z,133.20
2019-05-28T01:42:00.846Z,127.30
2019-05-28T01:44:29.138Z,126.67
2019-05-28T01:46:57.435Z,126.93
2019-05-28T01:49:25.796Z,124.47
2019-05-28T01:51:54.107Z,122.50
2019-05-28T01:54:22.395Z,118.97
2019-05-28T01:56:50.797Z,119.10
2019-05-28T01:59:19.257Z,120.80
2019-05-28T02:01:47.856Z,114.77
2019-05-28T02:04:16.448Z,114.70
2019-05-28T02:06:45.096Z,115.53
2019-05-28T02:09:13.703Z,112.37
2019-05-28T02:11:42.291Z,120.60
2019-05-28T02:14:10.574Z,201.73
2019-05-28T02:16:38.887Z,219.77
2019-05-28T02:19:07.518Z,171.07
2019-05-28T02:21:36.107Z,152.90
2019-05-28T02:24:04.690Z,141.47
2019-05-28T02:26:33.028Z,129.50
2019-05-28T02:29:01.318Z,126.30
2019-05-28T02:31:29.618Z,127.47
2019-05-28T02:33:57.913Z,127.67
2019-05-28T02:36:26.498Z,128.03
2019-05-28T02:38:54.858Z,133.10
2019-05-28T02:41:23.178Z,129.00
2019-05-28T02:43:52.015Z,136.90
2019-05-28T02:46:20.315Z,103.47
2019-05-28T02:48:48.635Z,123.47
2019-05-28T02:51:16.943Z,118.83
2019-05-28T02:53:45.555Z,130.07
2019-05-28T02:56:14.745Z,124.50
2019-05-28T02:58:43.334Z,120.97
2019-05-28T03:01:12.111Z,146.53
2019-05-28T03:03:40.707Z,132.30
2019-05-28T03:06:09.486Z,131.97
2019-05-28T03:08:37.798Z,122.20
2019-05-28T03:11:06.090Z,123.97
2019-05-28T03:13:34.466Z,122.77
2019-05-28T03:16:02.779Z,116.57
2019-05-28T03:18:31.856Z,117.63
2019-05-28T03:21:00.311Z,107.33
2019-05-28T03:23:28.632Z,100.80
2019-05-28T03:25:56.920Z,97.73
2019-05-28T03:28:25.549Z,112.70
2019-05-28T03:30:53.971Z,98.27
2019-05-28T03:33:22.267Z,97.77
2019-05-28T03:35:50.856Z,98.60
2019-05-28T03:38:19.420Z,96.10
2019-05-28T03:40:48.638Z,95.00
2019-05-28T03:43:16.944Z,91.80
2019-05-28T03:45:45.907Z,91.10
2019-05-28T03:48:14.471Z,94.83
2019-05-28T03:50:43.183Z,98.23
2019-05-28T03:53:11.730Z,88.33
2019-05-28T03:55:40.339Z,93.83
2019-05-28T03:58:08.935Z,87.83
2019-05-28T04:00:37.517Z,84.57
2019-05-28T04:03:06.050Z,86.77
2019-05-28T04:05:34.346Z,84.03
2019-05-28T04:08:02.661Z,85.63
2019-05-28T04:10:31.332Z,82.27
2019-05-28T04:12:59.876Z,85.67
2019-05-28T04:15:28.183Z,80.63
2019-05-28T04:17:56.478Z,83.17
2019-05-28T04:20:24.787Z,79.33
2019-05-28T04:22:53.080Z,81.73
2019-05-28T04:25:21.390Z,83.90
2019-05-28T04:27:49.680Z,78.00
2019-05-28T04:30:18.265Z,75.63
2019-05-28T04:32:46.843Z,76.67
2019-05-28T04:35:15.429Z,77.17
2019-05-28T04:37:44.009Z,77.40
2019-05-28T04:40:12.595Z,76.83
2019-05-28T04:42:40.874Z,75.73
2019-05-28T04:45:09.754Z,76.03
2019-05-28T04:47:38.064Z,73.20
2019-05-28T04:50:06.636Z,76.13
2019-05-28T04:52:35.179Z,70.60
2019-05-28T04:55:04.729Z,63.43
2019-05-28T04:57:33.400Z,45.73
2019-05-28T05:00:01.988Z,40.27
2019-05-28T05:02:30.280Z,42.73
2019-05-28T05:04:58.566Z,48.60
2019-05-28T05:07:27.236Z,57.30
2019-05-28T05:09:56.011Z,54.13
2019-05-28T05:12:24.612Z,51.40
2019-05-28T05:14:52.920Z,50.57
2019-05-28T05:17:21.286Z,47.80
2019-05-28T05:19:49.953Z,47.73
2019-05-28T05:22:18.541Z,46.30
2019-05-28T05:24:47.115Z,46.43
2019-05-28T05:27:15.431Z,44.57
2019-05-28T05:29:44.087Z,42.47
2019-05-28T05:32:12.375Z,44.07
2019-05-28T05:34:40.683Z,41.50
2019-05-28T05:37:09.312Z,40.40
2019-05-28T05:39:37.638Z,42.00
2019-05-28T05:42:06.285Z,38.80
2019-05-28T05:44:34.625Z,34.83
2019-05-28T05:47:02.914Z,34.83
2019-05-28T05:49:31.614Z,33.57
2019-05-28T05:52:00.143Z,31.07
2019-05-28T05:54:28.779Z,30.67
2019-05-28T05:56:57.076Z,33.77
2019-05-28T05:59:25.371Z,23.17
2019-05-28T06:01:54.023Z,20.90
2019-05-28T06:04:22.597Z,22.47
2019-05-28T06:06:51.192Z,23.20
2019-05-28T06:09:20.917Z,24.17
2019-05-28T06:11:49.221Z,24.83
2019-05-28T06:14:17.550Z,25.37
2019-05-28T06:16:46.143Z,25.70
2019-05-28T06:19:14.469Z,24.63
2019-05-28T06:21:42.845Z,23.43
2019-05-28T06:24:11.127Z,23.43
2019-05-28T06:26:39.667Z,21.30
2019-05-28T06:29:08.241Z,23.63
2019-05-28T06:31:36.831Z,23.13
2019-05-28T06:34:05.411Z,20.80
2019-05-28T06:36:33.773Z,20.60
2019-05-28T06:39:02.192Z,19.47
2019-05-28T06:41:30.661Z,22.27
2019-05-28T06:43:59.328Z,21.87
2019-05-28T06:46:27.623Z,22.00
2019-05-28T06:48:56.182Z,23.77
2019-05-28T06:51:24.490Z,23.57
2019-05-28T06:53:52.791Z,21.10
2019-05-28T06:56:21.429Z,23.30
2019-05-28T06:58:49.746Z,26.03
2019-05-28T07:01:18.140Z,23.77
2019-05-28T07:03:46.491Z,24.60
2019-05-28T07:06:14.831Z,24.00
2019-05-28T07:08:43.529Z,24.10
2019-05-28T07:11:12.222Z,23.77
2019-05-28T07:13:40.799Z,21.37
2019-05-28T07:16:09.110Z,20.37
2019-05-28T07:18:37.657Z,19.87
2019-05-28T07:21:06.200Z,21.50
2019-05-28T07:23:34.679Z,24.63
2019-05-28T07:26:03.309Z,25.30
2019-05-28T07:28:31.622Z,24.40
2019-05-28T07:31:00.273Z,25.57
2019-05-28T07:33:28.575Z,25.90
2019-05-28T07:35:57.231Z,25.67
2019-05-28T07:38:25.553Z,24.33
2019-05-28T07:40:54.301Z,25.33
2019-05-28T07:43:22.883Z,25.93
2019-05-28T07:45:51.492Z,23.70
2019-05-28T07:48:20.160Z,22.47
2019-05-28T07:50:48.542Z,21.50
2019-05-28T07:53:16.883Z,22.53
2019-05-28T07:55:45.698Z,24.33
2019-05-28T07:58:14.245Z,23.53
2019-05-28T08:00:43.005Z,25.37
2019-05-28T08:03:11.348Z,23.67
2019-05-28T08:05:39.908Z,24.00
2019-05-28T08:08:08.846Z,23.27
2019-05-28T08:10:37.157Z,22.90
2019-05-28T08:13:08.400Z,17.20
2019-05-28T08:15:36.763Z,17.70
2019-05-28T08:18:05.620Z,18.43
2019-05-28T08:20:34.187Z,17.57
2019-05-28T08:23:02.663Z,18.80
2019-05-28T08:25:46.352Z,28.40
2019-05-28T08:28:18.725Z,34.10
2019-05-28T08:30:31.381Z,39.70
2019-05-28T08:32:59.749Z,35.47
2019-05-28T08:35:28.362Z,29.17
2019-05-28T08:37:56.678Z,35.40
2019-05-28T08:40:25.000Z,30.90
2019-05-28T08:42:53.383Z,28.37
2019-05-28T08:45:22.085Z,29.80
2019-05-28T08:47:50.364Z,36.07
2019-05-28T08:50:33.075Z,27.97
2019-05-28T08:52:49.319Z,30.60
2019-05-28T08:55:18.153Z,33.93
2019-05-28T08:57:46.512Z,30.60
2019-05-28T09:00:18.140Z,29.33
2019-05-28T09:02:46.443Z,31.83
2019-05-28T09:05:25.672Z,30.77
2019-05-28T09:07:45.177Z,36.43
2019-05-28T09:10:13.768Z,42.70
2019-05-28T09:12:42.352Z,39.70
2019-05-28T09:15:10.651Z,43.00
2019-05-28T09:17:38.937Z,38.10
2019-05-28T09:20:07.234Z,37.30
2019-05-28T09:22:35.523Z,40.97
2019-05-28T09:25:05.475Z,37.27
2019-05-28T09:27:33.791Z,36.50
2019-05-28T09:30:02.427Z,35.40
2019-05-28T09:32:31.036Z,36.80
2019-05-28T09:35:02.469Z,32.93
2019-05-28T09:37:29.756Z,34.83
2019-05-28T09:39:58.079Z,38.77
2019-05-28T09:42:26.424Z,32.13
2019-05-28T09:44:54.730Z,47.43
2019-05-28T09:47:23.089Z,36.07
2019-05-28T09:49:51.804Z,38.53
2019-05-28T09:52:20.416Z,40.47
2019-05-28T09:54:49.180Z,34.87
2019-05-28T09:57:17.778Z,34.60
2019-05-28T09:59:46.451Z,30.70
2019-05-28T10:02:15.428Z,39.50
2019-05-28T10:04:49.739Z,39.83
2019-05-28T10:07:13.872Z,50.43
2019-05-28T10:09:42.655Z,48.00
2019-05-28T10:12:11.315Z,45.17
2019-05-28T10:14:39.934Z,45.43
2019-05-28T10:17:08.224Z,44.63
2019-05-28T10:19:36.806Z,47.40
2019-05-28T10:22:05.183Z,49.43
2019-05-28T10:24:33.491Z,58.13
2019-05-28T10:27:01.859Z,53.03
2019-05-28T10:29:30.491Z,51.20
2019-05-28T10:31:59.029Z,57.10
2019-05-28T10:34:27.750Z,55.50
2019-05-28T10:36:56.340Z,79.33
2019-05-28T10:39:24.935Z,85.37
2019-05-28T10:41:53.615Z,89.33
2019-05-28T10:44:22.200Z,85.77
2019-05-28T10:46:50.772Z,89.03
2019-05-28T10:49:19.147Z,83.07
2019-05-28T10:51:47.594Z,81.63
2019-05-28T10:54:16.212Z,75.23
2019-05-28T10:56:44.542Z,71.67
2019-05-28T10:59:12.876Z,80.65
2019-05-28T11:01:41.265Z,77.67
2019-05-28T11:04:09.880Z,72.90
2019-05-28T11:06:50.947Z,56.93
2019-05-28T11:09:09.030Z,52.33
2019-05-28T11:11:37.380Z,61.97
2019-05-28T11:14:05.869Z,56.80
2019-05-28T11:16:34.151Z,54.87
2019-05-28T11:19:02.461Z,59.40
2019-05-28T11:21:30.764Z,65.23
2019-05-28T11:23:59.061Z,80.97
2019-05-28T11:26:27.369Z,72.80
2019-05-28T11:28:55.931Z,68.87
2019-05-28T11:31:24.236Z,67.73
2019-05-28T11:33:52.536Z,66.03
2019-05-28T11:36:20.829Z,65.57
2019-05-28T11:38:49.452Z,64.70
2019-05-28T11:41:17.827Z,59.70
2019-05-28T11:43:46.412Z,56.53
2019-05-28T11:46:14.714Z,56.37
2019-05-28T11:48:43.415Z,52.33
2019-05-28T11:51:12.073Z,51.47
2019-05-28T11:53:40.741Z,60.12
2019-05-28T11:56:09.040Z,72.57
2019-05-28T11:58:37.349Z,55.87
2019-05-28T12:01:05.668Z,98.73
2019-05-28T12:03:34.073Z,117.43
2019-05-28T12:06:02.453Z,92.43
2019-05-28T12:08:30.836Z,69.23
2019-05-28T12:10:59.139Z,59.47
2019-05-28T12:13:27.702Z,52.53
2019-05-28T12:15:56.084Z,49.53
2019-05-28T12:18:24.406Z,49.20
2019-05-28T12:20:53.045Z,49.83
2019-05-28T12:23:21.713Z,48.70
2019-05-28T12:25:50.303Z,44.67
2019-05-28T12:28:36.434Z,45.50
2019-05-28T12:30:49.159Z,44.13
2019-05-28T12:33:17.783Z,45.67
2019-05-28T12:35:47.283Z,48.23
2019-05-28T12:38:15.565Z,103.77
2019-05-28T12:40:48.056Z,93.03
2019-05-28T12:43:14.184Z,77.23
2019-05-28T12:45:42.860Z,70.13
2019-05-28T12:48:13.900Z,64.67
2019-05-28T12:50:42.254Z,60.73
2019-05-28T12:53:10.858Z,55.80
2019-05-28T12:55:39.148Z,57.63
2019-05-28T12:58:07.866Z,56.73
2019-05-28T13:00:36.286Z,53.67
2019-05-28T13:03:04.766Z,52.97
2019-05-28T13:05:34.687Z,52.93
2019-05-28T13:08:08.922Z,49.53
2019-05-28T13:10:33.114Z,47.83
2019-05-28T13:13:01.494Z,54.03
2019-05-28T13:15:30.171Z,58.00
2019-05-28T13:17:58.807Z,69.30
2019-05-28T13:20:27.108Z,59.70
2019-05-28T13:22:56.003Z,65.73
2019-05-28T13:25:24.587Z,58.07
2019-05-28T13:27:52.965Z,68.37
2019-05-28T13:30:21.288Z,64.50
2019-05-28T13:32:49.719Z,69.70
2019-05-28T13:35:18.837Z,64.97
2019-05-28T13:37:47.510Z,65.27
2019-05-28T13:40:15.897Z,57.80
2019-05-28T13:42:44.245Z,55.47
2019-05-28T13:45:14.198Z,53.27
2019-05-28T13:47:42.775Z,53.17
2019-05-28T13:50:11.200Z,51.80
2019-05-28T13:52:39.546Z,53.03
2019-05-28T13:55:08.671Z,57.80
2019-05-28T13:57:39.541Z,116.93
2019-05-28T14:00:08.521Z,100.37
2019-05-28T14:02:37.557Z,96.50
2019-05-28T14:05:06.592Z,82.57
2019-05-28T14:07:35.244Z,81.87
2019-05-28T14:10:04.804Z,78.00
2019-05-28T14:12:33.429Z,75.07
2019-05-28T14:15:01.741Z,76.60
2019-05-28T14:17:30.209Z,70.13
2019-05-28T14:19:58.865Z,69.83
2019-05-28T14:22:34.112Z,143.13
2019-05-28T14:24:57.218Z,99.17
2019-05-28T14:27:25.839Z,87.43
2019-05-28T14:29:54.474Z,82.10
2019-05-28T14:32:22.795Z,73.80
2019-05-28T14:34:52.578Z,67.77
2019-05-28T14:37:21.144Z,66.33
2019-05-28T14:39:49.785Z,66.43
2019-05-28T14:42:18.381Z,68.60
2019-05-28T14:44:46.963Z,85.63
2019-05-28T14:47:15.289Z,96.73
2019-05-28T14:49:43.911Z,89.73
2019-05-28T14:52:12.225Z,66.17
2019-05-28T14:54:41.163Z,67.13
2019-05-28T14:57:09.511Z,59.30
2019-05-28T14:59:37.882Z,55.87
2019-05-28T15:02:06.532Z,55.67
2019-05-28T15:04:34.979Z,50.63
2019-05-28T15:07:03.479Z,49.77
2019-05-28T15:09:32.068Z,47.53
2019-05-28T15:12:03.644Z,46.47
2019-05-28T15:14:30.425Z,44.70
2019-05-28T15:16:58.785Z,43.60
2019-05-28T15:19:27.428Z,43.37
2019-05-28T15:21:55.790Z,49.20
2019-05-28T15:24:24.222Z,51.40
2019-05-28T15:26:52.881Z,45.27
2019-05-28T15:29:21.256Z,39.90
2019-05-28T15:31:49.653Z,38.07
2019-05-28T15:34:17.959Z,34.17
2019-05-28T15:36:46.287Z,34.83
2019-05-28T15:39:14.910Z,32.40
2019-05-28T15:41:43.569Z,31.90
2019-05-28T15:44:11.974Z,44.03
2019-05-28T15:46:40.267Z,42.17
2019-05-28T15:49:08.836Z,42.17
2019-05-28T15:51:37.122Z,34.50
2019-05-28T15:54:05.605Z,34.87
2019-05-28T15:56:33.913Z,33.97
2019-05-28T15:59:02.199Z,33.90
2019-05-28T16:01:30.512Z,31.73
2019-05-28T16:03:59.095Z,31.90
2019-05-28T16:06:27.610Z,30.53
2019-05-28T16:08:55.966Z,40.87
2019-05-28T16:11:24.319Z,51.55
2019-05-28T16:13:52.882Z,53.57
2019-05-28T16:16:24.213Z,62.10
2019-05-28T16:18:52.523Z,67.37
2019-05-28T16:21:20.831Z,72.37
2019-05-28T16:23:49.141Z,64.60
2019-05-28T16:26:17.451Z,57.83
2019-05-28T16:28:47.665Z,58.67
2019-05-28T16:31:15.985Z,56.17
2019-05-28T16:33:46.171Z,53.20
2019-05-28T16:36:14.472Z,51.27
2019-05-28T16:38:43.146Z,51.20
2019-05-28T16:41:11.708Z,49.77
2019-05-28T16:43:40.291Z,49.40
2019-05-28T16:46:11.933Z,47.87
2019-05-28T16:48:40.562Z,46.90
2019-05-28T16:51:10.708Z,44.93
2019-05-28T16:53:39.348Z,42.87
2019-05-28T16:56:07.933Z,40.77
2019-05-28T16:58:36.615Z,28.60
2019-05-28T17:01:21.669Z,33.83
2019-05-28T17:03:35.337Z,32.60
2019-05-28T17:06:03.664Z,28.47
2019-05-28T17:08:33.912Z,27.50
2019-05-28T17:11:02.511Z,26.70
2019-05-28T17:13:30.895Z,26.43
2019-05-28T17:15:59.279Z,25.27
2019-05-28T17:18:27.567Z,28.20
2019-05-28T17:20:56.141Z,51.90
2019-05-28T17:23:24.435Z,52.83
2019-05-28T17:25:53.068Z,82.77
2019-05-28T17:28:21.440Z,56.70
2019-05-28T17:30:50.046Z,45.77
2019-05-28T17:33:18.334Z,38.83
2019-05-28T17:35:46.998Z,37.60
2019-05-28T17:38:15.673Z,36.27
2019-05-28T17:40:48.382Z,34.77
2019-05-28T17:43:14.359Z,35.30
2019-05-28T17:45:43.088Z,34.20
2019-05-28T17:48:11.445Z,33.40
2019-05-28T17:50:40.019Z,33.37
2019-05-28T17:53:08.335Z,33.60
2019-05-28T17:55:36.982Z,32.53
2019-05-28T17:58:05.687Z,30.50
2019-05-28T18:00:35.969Z,30.70
2019-05-28T18:03:04.309Z,29.67
2019-05-28T18:05:32.628Z,28.93
2019-05-28T18:08:01.003Z,28.13
2019-05-28T18:10:29.560Z,27.53
2019-05-28T18:12:57.973Z,27.80
2019-05-28T18:15:26.675Z,26.63
2019-05-28T18:17:55.275Z,27.57
2019-05-28T18:20:23.956Z,25.97
2019-05-28T18:22:53.884Z,24.00
2019-05-28T18:25:22.265Z,23.80
2019-05-28T18:27:50.635Z,23.43
2019-05-28T18:30:19.336Z,38.00
2019-05-28T18:32:47.994Z,37.77
2019-05-28T18:35:16.572Z,34.63
2019-05-28T18:37:45.267Z,46.70
2019-05-28T18:40:15.296Z,45.03
2019-05-28T18:42:43.608Z,42.97
2019-05-28T18:45:12.164Z,40.63
2019-05-28T18:47:40.855Z,35.93
2019-05-28T18:50:09.858Z,34.60
2019-05-28T18:52:38.148Z,31.47
2019-05-28T18:55:07.618Z,32.17
2019-05-28T18:57:36.183Z,30.47
2019-05-28T19:00:10.209Z,27.63
2019-05-28T19:02:38.496Z,30.17
2019-05-28T19:05:07.243Z,28.33
2019-05-28T19:07:35.522Z,28.60
2019-05-28T19:10:05.668Z,27.30
2019-05-28T19:12:33.974Z,25.97
2019-05-28T19:15:02.959Z,32.67
2019-05-28T19:17:31.343Z,24.37
2019-05-28T19:19:59.893Z,29.50
2019-05-28T19:22:28.242Z,36.07
2019-05-28T19:24:57.386Z,31.23
2019-05-28T19:27:25.974Z,34.40
2019-05-28T19:29:54.267Z,34.03
2019-05-28T19:32:22.582Z,36.10
2019-05-28T19:34:50.913Z,31.90
2019-05-28T19:37:19.404Z,35.97
2019-05-28T19:39:47.949Z,34.20
2019-05-28T19:42:16.553Z,32.90
2019-05-28T19:44:44.922Z,30.40
2019-05-28T19:47:16.229Z,29.30
2019-05-28T19:49:43.767Z,30.13
2019-05-28T19:52:12.163Z,40.07
2019-05-28T19:54:40.796Z,31.40
2019-05-28T19:57:09.383Z,30.13
2019-05-28T19:59:37.941Z,46.17
2019-05-28T20:02:06.627Z,36.23
2019-05-28T20:04:35.231Z,33.17
2019-05-28T20:07:04.001Z,31.80
2019-05-28T20:09:32.583Z,40.47
2019-05-28T20:12:11.992Z,31.83
2019-05-28T20:14:31.298Z,30.10
2019-05-28T20:16:59.656Z,30.43
2019-05-28T20:19:28.044Z,33.00
2019-05-28T20:21:56.930Z,35.43
2019-05-28T20:24:25.317Z,33.60
2019-05-28T20:26:53.949Z,34.43
2019-05-28T20:29:22.411Z,33.23
2019-05-28T20:31:51.076Z,34.80
2019-05-28T20:34:19.411Z,30.77
2019-05-28T20:36:47.799Z,30.63
2019-05-28T20:39:16.160Z,31.00
2019-05-28T20:41:44.473Z,30.13
2019-05-28T20:44:13.067Z,28.23
2019-05-28T20:46:41.605Z,26.70
2019-05-28T20:49:10.959Z,29.00
2019-05-28T20:51:39.840Z,25.90
2019-05-28T20:54:08.152Z,29.37
2019-05-28T20:56:36.436Z,28.87
2019-05-28T20:59:05.015Z,37.93
2019-05-28T21:01:33.303Z,31.83
2019-05-28T21:04:01.625Z,30.97
2019-05-28T21:06:30.220Z,31.93
2019-05-28T21:08:58.523Z,30.83
2019-05-28T21:11:26.847Z,37.83
2019-05-28T21:13:55.456Z,48.43
2019-05-28T21:16:23.870Z,62.77
2019-05-28T21:18:53.178Z,65.97
2019-05-28T21:21:21.918Z,66.27
2019-05-28T21:23:50.299Z,67.53
2019-05-28T21:26:18.884Z,62.83
2019-05-28T21:28:47.181Z,65.53
2019-05-28T21:31:15.498Z,79.57
2019-05-28T21:33:44.420Z,83.20
2019-05-28T21:36:13.116Z,104.03
2019-05-28T21:38:41.597Z,104.27
2019-05-28T21:41:10.180Z,102.37
2019-05-28T21:43:38.769Z,95.53
2019-05-28T21:46:07.347Z,89.73
2019-05-28T21:48:36.051Z,86.77
2019-05-28T21:51:04.749Z,84.17
2019-05-28T21:53:33.068Z,86.63
2019-05-28T21:56:01.690Z,92.70
2019-05-28T21:58:30.298Z,103.97
2019-05-28T22:01:02.129Z,100.80
2019-05-28T22:03:30.693Z,101.97
2019-05-28T22:05:59.368Z,98.97
2019-05-28T22:08:27.852Z,90.73
2019-05-28T22:10:57.584Z,90.97
2019-05-28T22:13:26.067Z,85.13
2019-05-28T22:15:55.954Z,85.23
2019-05-28T22:18:24.441Z,82.60
2019-05-28T22:20:52.735Z,83.57
2019-05-28T22:23:21.048Z,82.63
2019-05-28T22:25:49.343Z,79.97
2019-05-28T22:28:17.982Z,80.63
2019-05-28T22:30:46.573Z,80.30
2019-05-28T22:33:16.685Z,77.90
2019-05-28T22:35:45.031Z,81.30
2019-05-28T22:38:13.352Z,168.83
2019-05-28T22:40:41.950Z,244.57
2019-05-28T22:43:10.731Z,197.13
2019-05-28T22:45:42.995Z,151.40
2019-05-28T22:48:15.916Z,133.00
2019-05-28T22:50:39.469Z,133.30
2019-05-28T22:53:08.196Z,124.37
2019-05-28T22:55:36.933Z,124.37
2019-05-28T22:58:06.487Z,127.63
2019-05-28T23:00:34.936Z,156.03
2019-05-28T23:03:03.236Z,146.30
2019-05-28T23:05:31.556Z,134.63
2019-05-28T23:08:00.146Z,138.67
2019-05-28T23:10:29.532Z,142.50
2019-05-28T23:12:57.828Z,170.63
2019-05-28T23:15:26.139Z,155.47
2019-05-28T23:17:54.441Z,162.27
2019-05-28T23:20:22.743Z,162.97
2019-05-28T23:22:51.331Z,205.53
2019-05-28T23:25:19.655Z,160.33
2019-05-28T23:27:48.405Z,154.03
2019-05-28T23:30:24.922Z,154.90
2019-05-28T23:33:42.399Z,144.83
2019-05-28T23:36:11.016Z,135.80
2019-05-28T23:38:39.671Z,134.93
2019-05-28T23:41:09.217Z,133.13
2019-05-28T23:43:37.670Z,135.00
2019-05-28T23:46:06.501Z,135.47
2019-05-28T23:48:34.804Z,133.83
2019-05-28T23:51:04.346Z,134.20
2019-05-28T23:53:32.852Z,127.03
2019-05-28T23:56:01.513Z,132.90
2019-05-28T23:58:30.197Z,128.43
